sensor_id;sensor_type;location;lat;lon;timestamp;P1;durP1;ratioP1;P2;durP2;ratioP2
5117;SDS011;2578;51.622;7.046;2022-07-06T00:01:45;3.40;;;1.10;;
5117;SDS011;2578;51.622;7.046;2022-07-06T00:04:11;3.40;;;1.00;;
5117;SDS011;2578;51.622;7.046;2022-07-06T00:06:37;3.40;;;1.00;;
5117;SDS011;2578;51.622;7.046;2022-07-06T00:09:03;3.37;;;1.00;;
5117;SDS011;2578;51.622;7.046;2022-07-06T00:11:30;4.00;;;1.70;;
5117;SDS011;2578;51.622;7.046;2022-07-06T00:13:55;3.37;;;1.00;;
5117;SDS011;2578;51.622;7.046;2022-07-06T00:16:24;3.40;;;1.00;;
5117;SDS011;2578;51.622;7.046;2022-07-06T00:18:50;3.37;;;1.00;;
5117;SDS011;2578;51.622;7.046;2022-07-06T00:21:16;3.40;;;1.00;;
5117;SDS011;2578;51.622;7.046;2022-07-06T00:23:42;3.43;;;0.90;;
5117;SDS011;2578;51.622;7.046;2022-07-06T00:26:08;3.43;;;0.90;;
5117;SDS011;2578;51.622;7.046;2022-07-06T00:28:33;3.47;;;0.90;;
5117;SDS011;2578;51.622;7.046;2022-07-06T00:30:59;3.40;;;1.00;;
5117;SDS011;2578;51.622;7.046;2022-07-06T00:33:25;3.43;;;1.00;;
5117;SDS011;2578;51.622;7.046;2022-07-06T00:35:50;3.37;;;1.00;;
5117;SDS011;2578;51.622;7.046;2022-07-06T00:38:16;3.40;;;1.00;;
5117;SDS011;2578;51.622;7.046;2022-07-06T00:40:42;3.40;;;1.00;;
5117;SDS011;2578;51.622;7.046;2022-07-06T00:43:07;3.40;;;1.00;;
5117;SDS011;2578;51.622;7.046;2022-07-06T00:45:33;3.47;;;1.00;;
5117;SDS011;2578;51.622;7.046;2022-07-06T00:47:59;3.43;;;1.00;;
5117;SDS011;2578;51.622;7.046;2022-07-06T00:50:25;3.40;;;0.97;;
5117;SDS011;2578;51.622;7.046;2022-07-06T00:52:56;3.40;;;1.00;;
5117;SDS011;2578;51.622;7.046;2022-07-06T00:55:26;3.43;;;1.00;;
5117;SDS011;2578;51.622;7.046;2022-07-06T00:57:53;3.37;;;0.90;;
5117;SDS011;2578;51.622;7.046;2022-07-06T01:00:21;3.47;;;1.00;;
5117;SDS011;2578;51.622;7.046;2022-07-06T01:02:48;3.50;;;1.00;;
5117;SDS011;2578;51.622;7.046;2022-07-06T01:05:14;3.53;;;1.10;;
5117;SDS011;2578;51.622;7.046;2022-07-06T01:07:42;3.50;;;1.00;;
5117;SDS011;2578;51.622;7.046;2022-07-06T01:10:09;4.03;;;1.93;;
5117;SDS011;2578;51.622;7.046;2022-07-06T01:12:37;4.10;;;1.57;;
5117;SDS011;2578;51.622;7.046;2022-07-06T01:15:05;3.47;;;1.00;;
5117;SDS011;2578;51.622;7.046;2022-07-06T01:17:32;3.40;;;1.20;;
5117;SDS011;2578;51.622;7.046;2022-07-06T01:20:07;3.40;;;1.00;;
5117;SDS011;2578;51.622;7.046;2022-07-06T01:22:39;3.50;;;1.10;;
5117;SDS011;2578;51.622;7.046;2022-07-06T01:25:06;3.43;;;1.00;;
5117;SDS011;2578;51.622;7.046;2022-07-06T01:27:33;3.40;;;1.03;;
5117;SDS011;2578;51.622;7.046;2022-07-06T01:30:03;3.50;;;1.10;;
5117;SDS011;2578;51.622;7.046;2022-07-06T01:32:33;3.50;;;1.10;;
5117;SDS011;2578;51.622;7.046;2022-07-06T01:35:00;3.50;;;1.00;;
5117;SDS011;2578;51.622;7.046;2022-07-06T01:37:26;3.57;;;1.10;;
5117;SDS011;2578;51.622;7.046;2022-07-06T01:39:51;3.53;;;1.03;;
5117;SDS011;2578;51.622;7.046;2022-07-06T01:42:17;3.53;;;1.07;;
5117;SDS011;2578;51.622;7.046;2022-07-06T01:44:43;3.60;;;1.20;;
5117;SDS011;2578;51.622;7.046;2022-07-06T01:47:09;3.57;;;1.10;;
5117;SDS011;2578;51.622;7.046;2022-07-06T01:49:38;3.60;;;1.20;;
5117;SDS011;2578;51.622;7.046;2022-07-06T01:52:04;3.60;;;1.13;;
5117;SDS011;2578;51.622;7.046;2022-07-06T01:54:29;4.00;;;1.67;;
5117;SDS011;2578;51.622;7.046;2022-07-06T01:56:55;4.73;;;1.97;;
5117;SDS011;2578;51.622;7.046;2022-07-06T01:59:21;3.53;;;1.20;;
5117;SDS011;2578;51.622;7.046;2022-07-06T02:01:46;3.70;;;1.20;;
5117;SDS011;2578;51.622;7.046;2022-07-06T02:04:12;3.50;;;1.20;;
5117;SDS011;2578;51.622;7.046;2022-07-06T02:06:37;3.60;;;1.20;;
5117;SDS011;2578;51.622;7.046;2022-07-06T02:09:03;3.60;;;1.20;;
5117;SDS011;2578;51.622;7.046;2022-07-06T02:11:29;3.60;;;1.30;;
5117;SDS011;2578;51.622;7.046;2022-07-06T02:13:54;3.60;;;1.30;;
5117;SDS011;2578;51.622;7.046;2022-07-06T02:16:20;3.70;;;1.40;;
5117;SDS011;2578;51.622;7.046;2022-07-06T02:18:46;3.60;;;1.20;;
5117;SDS011;2578;51.622;7.046;2022-07-06T02:21:11;3.53;;;1.10;;
5117;SDS011;2578;51.622;7.046;2022-07-06T02:23:37;3.60;;;1.10;;
5117;SDS011;2578;51.622;7.046;2022-07-06T02:26:03;3.60;;;1.10;;
5117;SDS011;2578;51.622;7.046;2022-07-06T02:28:29;4.67;;;1.83;;
5117;SDS011;2578;51.622;7.046;2022-07-06T02:30:54;3.60;;;1.30;;
5117;SDS011;2578;51.622;7.046;2022-07-06T02:33:20;3.57;;;1.20;;
5117;SDS011;2578;51.622;7.046;2022-07-06T02:35:46;3.57;;;1.30;;
5117;SDS011;2578;51.622;7.046;2022-07-06T02:38:11;3.70;;;1.50;;
5117;SDS011;2578;51.622;7.046;2022-07-06T02:40:37;3.60;;;1.20;;
5117;SDS011;2578;51.622;7.046;2022-07-06T02:43:03;3.60;;;1.20;;
5117;SDS011;2578;51.622;7.046;2022-07-06T02:45:30;3.50;;;1.00;;
5117;SDS011;2578;51.622;7.046;2022-07-06T02:47:56;3.50;;;1.10;;
5117;SDS011;2578;51.622;7.046;2022-07-06T02:50:22;3.53;;;1.10;;
5117;SDS011;2578;51.622;7.046;2022-07-06T02:52:49;3.53;;;1.10;;
5117;SDS011;2578;51.622;7.046;2022-07-06T02:55:14;3.50;;;1.00;;
5117;SDS011;2578;51.622;7.046;2022-07-06T02:57:40;3.50;;;1.00;;
5117;SDS011;2578;51.622;7.046;2022-07-06T03:00:06;6.03;;;2.90;;
5117;SDS011;2578;51.622;7.046;2022-07-06T03:02:32;3.50;;;1.10;;
5117;SDS011;2578;51.622;7.046;2022-07-06T03:04:58;3.80;;;1.40;;
5117;SDS011;2578;51.622;7.046;2022-07-06T03:07:24;3.50;;;1.10;;
5117;SDS011;2578;51.622;7.046;2022-07-06T03:09:49;3.60;;;1.20;;
5117;SDS011;2578;51.622;7.046;2022-07-06T03:12:15;3.90;;;1.53;;
5117;SDS011;2578;51.622;7.046;2022-07-06T03:14:41;3.70;;;1.20;;
5117;SDS011;2578;51.622;7.046;2022-07-06T03:17:07;3.90;;;1.60;;
5117;SDS011;2578;51.622;7.046;2022-07-06T03:19:33;3.53;;;1.20;;
5117;SDS011;2578;51.622;7.046;2022-07-06T03:21:58;3.57;;;1.20;;
5117;SDS011;2578;51.622;7.046;2022-07-06T03:24:24;3.53;;;1.10;;
5117;SDS011;2578;51.622;7.046;2022-07-06T03:26:50;3.50;;;1.10;;
5117;SDS011;2578;51.622;7.046;2022-07-06T03:29:16;3.50;;;1.00;;
5117;SDS011;2578;51.622;7.046;2022-07-06T03:31:41;3.50;;;1.00;;
5117;SDS011;2578;51.622;7.046;2022-07-06T03:34:07;3.50;;;1.00;;
5117;SDS011;2578;51.622;7.046;2022-07-06T03:36:32;3.50;;;1.10;;
5117;SDS011;2578;51.622;7.046;2022-07-06T03:38:58;3.50;;;1.00;;
5117;SDS011;2578;51.622;7.046;2022-07-06T03:41:24;3.50;;;1.00;;
5117;SDS011;2578;51.622;7.046;2022-07-06T03:43:49;3.50;;;1.00;;
5117;SDS011;2578;51.622;7.046;2022-07-06T03:46:15;3.53;;;1.10;;
5117;SDS011;2578;51.622;7.046;2022-07-06T03:48:41;3.60;;;1.20;;
5117;SDS011;2578;51.622;7.046;2022-07-06T03:51:06;3.70;;;1.10;;
5117;SDS011;2578;51.622;7.046;2022-07-06T03:53:32;3.67;;;1.10;;
5117;SDS011;2578;51.622;7.046;2022-07-06T03:55:57;3.60;;;0.90;;
5117;SDS011;2578;51.622;7.046;2022-07-06T03:58:42;3.63;;;1.10;;
5117;SDS011;2578;51.622;7.046;2022-07-06T04:01:08;3.90;;;1.37;;
5117;SDS011;2578;51.622;7.046;2022-07-06T04:03:33;3.83;;;1.10;;
5117;SDS011;2578;51.622;7.046;2022-07-06T04:05:59;3.80;;;1.20;;
5117;SDS011;2578;51.622;7.046;2022-07-06T04:08:25;6.93;;;4.10;;
5117;SDS011;2578;51.622;7.046;2022-07-06T04:10:50;3.80;;;1.10;;
5117;SDS011;2578;51.622;7.046;2022-07-06T04:13:16;3.87;;;1.10;;
5117;SDS011;2578;51.622;7.046;2022-07-06T04:15:41;3.90;;;1.10;;
5117;SDS011;2578;51.622;7.046;2022-07-06T04:18:07;3.87;;;1.20;;
5117;SDS011;2578;51.622;7.046;2022-07-06T04:20:33;4.00;;;1.50;;
5117;SDS011;2578;51.622;7.046;2022-07-06T04:22:58;3.90;;;1.10;;
5117;SDS011;2578;51.622;7.046;2022-07-06T04:25:24;3.87;;;1.10;;
5117;SDS011;2578;51.622;7.046;2022-07-06T04:27:50;3.80;;;1.00;;
5117;SDS011;2578;51.622;7.046;2022-07-06T04:30:15;3.90;;;1.20;;
5117;SDS011;2578;51.622;7.046;2022-07-06T04:32:41;3.93;;;1.40;;
5117;SDS011;2578;51.622;7.046;2022-07-06T04:35:07;3.80;;;1.20;;
5117;SDS011;2578;51.622;7.046;2022-07-06T04:37:33;4.10;;;1.43;;
5117;SDS011;2578;51.622;7.046;2022-07-06T04:39:58;3.90;;;1.30;;
5117;SDS011;2578;51.622;7.046;2022-07-06T04:42:24;4.73;;;1.93;;
5117;SDS011;2578;51.622;7.046;2022-07-06T04:44:50;3.80;;;1.30;;
5117;SDS011;2578;51.622;7.046;2022-07-06T04:47:16;4.20;;;2.07;;
5117;SDS011;2578;51.622;7.046;2022-07-06T04:49:42;4.20;;;1.80;;
5117;SDS011;2578;51.622;7.046;2022-07-06T04:52:08;4.40;;;2.03;;
5117;SDS011;2578;51.622;7.046;2022-07-06T04:54:33;3.93;;;1.43;;
5117;SDS011;2578;51.622;7.046;2022-07-06T04:56:59;4.97;;;2.70;;
5117;SDS011;2578;51.622;7.046;2022-07-06T04:59:25;3.90;;;1.23;;
5117;SDS011;2578;51.622;7.046;2022-07-06T05:01:50;5.77;;;2.67;;
5117;SDS011;2578;51.622;7.046;2022-07-06T05:04:16;5.57;;;2.73;;
5117;SDS011;2578;51.622;7.046;2022-07-06T05:06:45;5.90;;;4.23;;
5117;SDS011;2578;51.622;7.046;2022-07-06T05:09:11;4.23;;;2.40;;
5117;SDS011;2578;51.622;7.046;2022-07-06T05:11:37;3.90;;;1.63;;
5117;SDS011;2578;51.622;7.046;2022-07-06T05:14:03;3.60;;;1.20;;
5117;SDS011;2578;51.622;7.046;2022-07-06T05:16:30;4.10;;;1.80;;
5117;SDS011;2578;51.622;7.046;2022-07-06T05:18:56;3.70;;;1.17;;
5117;SDS011;2578;51.622;7.046;2022-07-06T05:21:21;3.57;;;1.33;;
5117;SDS011;2578;51.622;7.046;2022-07-06T05:23:47;3.60;;;1.33;;
5117;SDS011;2578;51.622;7.046;2022-07-06T05:26:12;3.70;;;1.60;;
5117;SDS011;2578;51.622;7.046;2022-07-06T05:28:38;3.67;;;1.50;;
5117;SDS011;2578;51.622;7.046;2022-07-06T05:31:04;5.07;;;3.50;;
5117;SDS011;2578;51.622;7.046;2022-07-06T05:33:29;3.70;;;1.50;;
5117;SDS011;2578;51.622;7.046;2022-07-06T05:35:55;7.00;;;2.33;;
5117;SDS011;2578;51.622;7.046;2022-07-06T05:38:21;3.50;;;1.20;;
5117;SDS011;2578;51.622;7.046;2022-07-06T05:40:46;3.47;;;1.20;;
5117;SDS011;2578;51.622;7.046;2022-07-06T05:43:12;6.90;;;2.50;;
5117;SDS011;2578;51.622;7.046;2022-07-06T05:45:38;5.00;;;3.20;;
5117;SDS011;2578;51.622;7.046;2022-07-06T05:48:04;3.50;;;1.30;;
5117;SDS011;2578;51.622;7.046;2022-07-06T05:50:48;4.97;;;1.90;;
5117;SDS011;2578;51.622;7.046;2022-07-06T05:53:13;3.53;;;1.47;;
5117;SDS011;2578;51.622;7.046;2022-07-06T05:55:39;3.60;;;1.40;;
5117;SDS011;2578;51.622;7.046;2022-07-06T05:58:05;4.27;;;1.50;;
5117;SDS011;2578;51.622;7.046;2022-07-06T06:00:30;3.80;;;1.60;;
5117;SDS011;2578;51.622;7.046;2022-07-06T06:02:56;4.20;;;1.50;;
5117;SDS011;2578;51.622;7.046;2022-07-06T06:05:23;3.77;;;1.60;;
5117;SDS011;2578;51.622;7.046;2022-07-06T06:07:49;3.60;;;1.50;;
5117;SDS011;2578;51.622;7.046;2022-07-06T06:10:16;4.73;;;2.13;;
5117;SDS011;2578;51.622;7.046;2022-07-06T06:12:43;4.80;;;1.80;;
5117;SDS011;2578;51.622;7.046;2022-07-06T06:15:09;3.73;;;1.60;;
5117;SDS011;2578;51.622;7.046;2022-07-06T06:17:35;5.50;;;3.40;;
5117;SDS011;2578;51.622;7.046;2022-07-06T06:20:02;3.80;;;1.77;;
5117;SDS011;2578;51.622;7.046;2022-07-06T06:25:11;3.73;;;2.00;;
5117;SDS011;2578;51.622;7.046;2022-07-06T06:27:37;4.87;;;2.30;;
5117;SDS011;2578;51.622;7.046;2022-07-06T06:30:02;3.60;;;2.10;;
5117;SDS011;2578;51.622;7.046;2022-07-06T06:32:29;4.00;;;2.50;;
5117;SDS011;2578;51.622;7.046;2022-07-06T06:34:54;3.80;;;2.40;;
5117;SDS011;2578;51.622;7.046;2022-07-06T06:37:20;4.10;;;2.90;;
5117;SDS011;2578;51.622;7.046;2022-07-06T06:39:45;4.70;;;3.53;;
5117;SDS011;2578;51.622;7.046;2022-07-06T06:42:11;4.27;;;3.10;;
5117;SDS011;2578;51.622;7.046;2022-07-06T06:44:37;4.17;;;3.30;;
5117;SDS011;2578;51.622;7.046;2022-07-06T06:47:02;4.90;;;4.40;;
5117;SDS011;2578;51.622;7.046;2022-07-06T06:49:28;5.10;;;4.60;;
5117;SDS011;2578;51.622;7.046;2022-07-06T06:51:54;5.37;;;4.87;;
5117;SDS011;2578;51.622;7.046;2022-07-06T06:54:19;5.70;;;5.20;;
5117;SDS011;2578;51.622;7.046;2022-07-06T06:56:45;6.13;;;5.63;;
5117;SDS011;2578;51.622;7.046;2022-07-06T06:59:11;6.20;;;5.70;;
5117;SDS011;2578;51.622;7.046;2022-07-06T07:01:36;7.07;;;6.50;;
5117;SDS011;2578;51.622;7.046;2022-07-06T07:04:02;7.70;;;7.10;;
5117;SDS011;2578;51.622;7.046;2022-07-06T07:06:28;8.53;;;7.93;;
5117;SDS011;2578;51.622;7.046;2022-07-06T07:08:53;8.10;;;7.50;;
5117;SDS011;2578;51.622;7.046;2022-07-06T07:11:20;8.03;;;7.43;;
5117;SDS011;2578;51.622;7.046;2022-07-06T07:13:46;11.43;;;9.60;;
5117;SDS011;2578;51.622;7.046;2022-07-06T07:16:12;9.60;;;8.90;;
5117;SDS011;2578;51.622;7.046;2022-07-06T07:18:37;10.90;;;10.00;;
5117;SDS011;2578;51.622;7.046;2022-07-06T07:21:03;10.77;;;10.07;;
5117;SDS011;2578;51.622;7.046;2022-07-06T07:23:29;10.40;;;9.70;;
5117;SDS011;2578;51.622;7.046;2022-07-06T07:25:55;14.20;;;10.53;;
5117;SDS011;2578;51.622;7.046;2022-07-06T07:28:20;10.07;;;9.37;;
5117;SDS011;2578;51.622;7.046;2022-07-06T07:30:46;10.57;;;9.87;;
5117;SDS011;2578;51.622;7.046;2022-07-06T07:33:12;11.30;;;10.50;;
5117;SDS011;2578;51.622;7.046;2022-07-06T07:35:37;13.00;;;11.80;;
5117;SDS011;2578;51.622;7.046;2022-07-06T07:38:03;11.60;;;10.80;;
5117;SDS011;2578;51.622;7.046;2022-07-06T07:40:29;12.10;;;11.30;;
5117;SDS011;2578;51.622;7.046;2022-07-06T07:42:55;12.20;;;11.40;;
5117;SDS011;2578;51.622;7.046;2022-07-06T07:45:20;13.17;;;12.17;;
5117;SDS011;2578;51.622;7.046;2022-07-06T07:47:46;12.10;;;11.30;;
5117;SDS011;2578;51.622;7.046;2022-07-06T07:50:12;12.07;;;11.27;;
5117;SDS011;2578;51.622;7.046;2022-07-06T07:52:37;13.03;;;12.03;;
5117;SDS011;2578;51.622;7.046;2022-07-06T07:55:03;13.50;;;12.40;;
5117;SDS011;2578;51.622;7.046;2022-07-06T07:57:29;12.40;;;11.60;;
5117;SDS011;2578;51.622;7.046;2022-07-06T07:59:55;12.00;;;11.20;;
5117;SDS011;2578;51.622;7.046;2022-07-06T08:02:20;12.67;;;11.87;;
5117;SDS011;2578;51.622;7.046;2022-07-06T08:04:46;12.70;;;11.90;;
5117;SDS011;2578;51.622;7.046;2022-07-06T08:07:12;12.60;;;11.80;;
5117;SDS011;2578;51.622;7.046;2022-07-06T08:09:37;13.30;;;12.40;;
5117;SDS011;2578;51.622;7.046;2022-07-06T08:12:03;13.13;;;12.30;;
5117;SDS011;2578;51.622;7.046;2022-07-06T08:14:29;13.80;;;12.90;;
5117;SDS011;2578;51.622;7.046;2022-07-06T08:16:55;14.67;;;13.57;;
5117;SDS011;2578;51.622;7.046;2022-07-06T08:19:21;13.80;;;12.90;;
5117;SDS011;2578;51.622;7.046;2022-07-06T08:21:46;15.33;;;14.33;;
5117;SDS011;2578;51.622;7.046;2022-07-06T08:24:12;14.70;;;13.70;;
5117;SDS011;2578;51.622;7.046;2022-07-06T08:26:38;15.60;;;14.30;;
5117;SDS011;2578;51.622;7.046;2022-07-06T08:29:03;19.13;;;14.97;;
5117;SDS011;2578;51.622;7.046;2022-07-06T08:31:29;15.90;;;14.50;;
5117;SDS011;2578;51.622;7.046;2022-07-06T08:33:56;15.70;;;14.60;;
5117;SDS011;2578;51.622;7.046;2022-07-06T08:36:21;15.30;;;14.30;;
5117;SDS011;2578;51.622;7.046;2022-07-06T08:38:48;17.27;;;16.07;;
5117;SDS011;2578;51.622;7.046;2022-07-06T08:41:14;16.20;;;15.10;;
5117;SDS011;2578;51.622;7.046;2022-07-06T08:43:41;15.27;;;14.27;;
5117;SDS011;2578;51.622;7.046;2022-07-06T08:46:07;16.40;;;15.20;;
5117;SDS011;2578;51.622;7.046;2022-07-06T08:48:36;15.70;;;14.70;;
5117;SDS011;2578;51.622;7.046;2022-07-06T08:51:04;16.43;;;15.03;;
5117;SDS011;2578;51.622;7.046;2022-07-06T08:53:30;16.53;;;15.20;;
5117;SDS011;2578;51.622;7.046;2022-07-06T08:55:55;15.20;;;14.20;;
5117;SDS011;2578;51.622;7.046;2022-07-06T08:58:24;15.90;;;14.80;;
5117;SDS011;2578;51.622;7.046;2022-07-06T09:00:55;17.80;;;16.50;;
5117;SDS011;2578;51.622;7.046;2022-07-06T09:03:22;18.13;;;16.83;;
5117;SDS011;2578;51.622;7.046;2022-07-06T09:05:48;18.00;;;16.70;;
5117;SDS011;2578;51.622;7.046;2022-07-06T09:08:16;18.60;;;17.30;;
5117;SDS011;2578;51.622;7.046;2022-07-06T09:10:44;18.10;;;16.80;;
5117;SDS011;2578;51.622;7.046;2022-07-06T09:13:11;17.90;;;16.60;;
5117;SDS011;2578;51.622;7.046;2022-07-06T09:15:37;18.30;;;16.90;;
5117;SDS011;2578;51.622;7.046;2022-07-06T09:18:06;17.70;;;16.40;;
5117;SDS011;2578;51.622;7.046;2022-07-06T09:20:32;18.60;;;17.30;;
5117;SDS011;2578;51.622;7.046;2022-07-06T09:22:59;17.90;;;16.60;;
5117;SDS011;2578;51.622;7.046;2022-07-06T09:25:26;17.70;;;16.40;;
5117;SDS011;2578;51.622;7.046;2022-07-06T09:27:53;17.70;;;16.40;;
5117;SDS011;2578;51.622;7.046;2022-07-06T09:30:20;16.70;;;15.50;;
5117;SDS011;2578;51.622;7.046;2022-07-06T09:32:48;16.17;;;15.07;;
5117;SDS011;2578;51.622;7.046;2022-07-06T09:38:12;16.30;;;15.20;;
5117;SDS011;2578;51.622;7.046;2022-07-06T09:40:39;15.90;;;14.70;;
5117;SDS011;2578;51.622;7.046;2022-07-06T09:45:34;19.40;;;18.00;;
5117;SDS011;2578;51.622;7.046;2022-07-06T09:50:48;20.20;;;18.70;;
5117;SDS011;2578;51.622;7.046;2022-07-06T09:53:16;22.53;;;20.93;;
5117;SDS011;2578;51.622;7.046;2022-07-06T09:55:49;23.53;;;21.83;;
5117;SDS011;2578;51.622;7.046;2022-07-06T09:58:16;23.00;;;21.40;;
5117;SDS011;2578;51.622;7.046;2022-07-06T10:00:43;21.70;;;20.20;;
5117;SDS011;2578;51.622;7.046;2022-07-06T10:03:09;20.87;;;19.37;;
5117;SDS011;2578;51.622;7.046;2022-07-06T10:05:39;21.13;;;19.63;;
5117;SDS011;2578;51.622;7.046;2022-07-06T10:08:07;20.30;;;18.80;;
5117;SDS011;2578;51.622;7.046;2022-07-06T10:10:37;20.90;;;19.40;;
5117;SDS011;2578;51.622;7.046;2022-07-06T10:13:04;21.57;;;20.00;;
5117;SDS011;2578;51.622;7.046;2022-07-06T10:15:31;20.73;;;19.27;;
5117;SDS011;2578;51.622;7.046;2022-07-06T10:17:58;20.50;;;19.00;;
5117;SDS011;2578;51.622;7.046;2022-07-06T10:20:27;20.93;;;19.53;;
5117;SDS011;2578;51.622;7.046;2022-07-06T10:22:57;21.13;;;19.63;;
5117;SDS011;2578;51.622;7.046;2022-07-06T10:25:24;20.80;;;19.30;;
5117;SDS011;2578;51.622;7.046;2022-07-06T10:27:51;20.20;;;18.80;;
5117;SDS011;2578;51.622;7.046;2022-07-06T10:30:17;20.40;;;19.00;;
5117;SDS011;2578;51.622;7.046;2022-07-06T10:32:44;19.80;;;18.40;;
5117;SDS011;2578;51.622;7.046;2022-07-06T10:35:13;21.40;;;19.90;;
5117;SDS011;2578;51.622;7.046;2022-07-06T10:37:39;20.87;;;19.37;;
5117;SDS011;2578;51.622;7.046;2022-07-06T10:40:05;20.37;;;18.97;;
5117;SDS011;2578;51.622;7.046;2022-07-06T10:43:00;21.00;;;19.50;;
5117;SDS011;2578;51.622;7.046;2022-07-06T10:50:54;21.97;;;20.37;;
5117;SDS011;2578;51.622;7.046;2022-07-06T10:53:24;21.40;;;19.90;;
5117;SDS011;2578;51.622;7.046;2022-07-06T10:55:50;21.50;;;20.00;;
5117;SDS011;2578;51.622;7.046;2022-07-06T10:58:36;21.00;;;19.50;;
5117;SDS011;2578;51.622;7.046;2022-07-06T11:01:11;21.07;;;19.57;;
5117;SDS011;2578;51.622;7.046;2022-07-06T11:03:39;21.30;;;19.70;;
5117;SDS011;2578;51.622;7.046;2022-07-06T11:06:18;21.90;;;20.30;;
5117;SDS011;2578;51.622;7.046;2022-07-06T11:11:21;20.40;;;18.90;;
5117;SDS011;2578;51.622;7.046;2022-07-06T11:16:32;20.43;;;18.93;;
5117;SDS011;2578;51.622;7.046;2022-07-06T11:24:26;19.67;;;18.27;;
5117;SDS011;2578;51.622;7.046;2022-07-06T11:26:54;19.30;;;17.90;;
5117;SDS011;2578;51.622;7.046;2022-07-06T11:29:22;23.23;;;20.90;;
5117;SDS011;2578;51.622;7.046;2022-07-06T11:31:52;20.40;;;19.00;;
5117;SDS011;2578;51.622;7.046;2022-07-06T11:34:23;21.00;;;19.60;;
5117;SDS011;2578;51.622;7.046;2022-07-06T11:36:56;21.67;;;20.17;;
5117;SDS011;2578;51.622;7.046;2022-07-06T11:39:30;21.00;;;19.60;;
5117;SDS011;2578;51.622;7.046;2022-07-06T11:41:57;21.80;;;20.30;;
5117;SDS011;2578;51.622;7.046;2022-07-06T11:44:23;21.90;;;20.30;;
5117;SDS011;2578;51.622;7.046;2022-07-06T11:46:49;22.70;;;21.10;;
5117;SDS011;2578;51.622;7.046;2022-07-06T11:49:15;23.30;;;21.60;;
5117;SDS011;2578;51.622;7.046;2022-07-06T11:51:42;23.67;;;21.97;;
5117;SDS011;2578;51.622;7.046;2022-07-06T11:54:16;24.27;;;22.57;;
5117;SDS011;2578;51.622;7.046;2022-07-06T11:56:56;24.63;;;22.93;;
5117;SDS011;2578;51.622;7.046;2022-07-06T12:04:32;25.50;;;23.80;;
5117;SDS011;2578;51.622;7.046;2022-07-06T12:07:05;24.90;;;23.20;;
5117;SDS011;2578;51.622;7.046;2022-07-06T12:09:37;24.60;;;22.80;;
5117;SDS011;2578;51.622;7.046;2022-07-06T12:12:06;24.30;;;22.60;;
5117;SDS011;2578;51.622;7.046;2022-07-06T12:14:34;24.33;;;22.63;;
5117;SDS011;2578;51.622;7.046;2022-07-06T12:17:03;23.10;;;21.40;;
5117;SDS011;2578;51.622;7.046;2022-07-06T12:19:30;25.47;;;23.50;;
5117;SDS011;2578;51.622;7.046;2022-07-06T12:21:56;25.43;;;23.63;;
5117;SDS011;2578;51.622;7.046;2022-07-06T12:24:26;24.77;;;23.07;;
5117;SDS011;2578;51.622;7.046;2022-07-06T12:26:53;26.17;;;24.17;;
5117;SDS011;2578;51.622;7.046;2022-07-06T12:29:20;27.37;;;24.87;;
5117;SDS011;2578;51.622;7.046;2022-07-06T12:34:21;25.30;;;23.50;;
5117;SDS011;2578;51.622;7.046;2022-07-06T12:39:14;24.67;;;22.87;;
5117;SDS011;2578;51.622;7.046;2022-07-06T12:41:55;24.37;;;22.57;;
5117;SDS011;2578;51.622;7.046;2022-07-06T12:44:30;24.40;;;22.60;;
5117;SDS011;2578;51.622;7.046;2022-07-06T12:49:29;25.00;;;23.10;;
5117;SDS011;2578;51.622;7.046;2022-07-06T12:54:23;24.47;;;22.67;;
5117;SDS011;2578;51.622;7.046;2022-07-06T12:59:23;25.47;;;23.47;;
5117;SDS011;2578;51.622;7.046;2022-07-06T13:01:50;23.90;;;22.10;;
5117;SDS011;2578;51.622;7.046;2022-07-06T13:04:16;24.57;;;22.73;;
5117;SDS011;2578;51.622;7.046;2022-07-06T13:06:42;24.10;;;22.30;;
5117;SDS011;2578;51.622;7.046;2022-07-06T13:09:08;23.90;;;22.10;;
5117;SDS011;2578;51.622;7.046;2022-07-06T13:11:33;25.13;;;22.47;;
5117;SDS011;2578;51.622;7.046;2022-07-06T13:13:59;24.70;;;22.80;;
5117;SDS011;2578;51.622;7.046;2022-07-06T13:16:25;25.73;;;23.83;;
5117;SDS011;2578;51.622;7.046;2022-07-06T13:18:55;25.67;;;23.83;;
5117;SDS011;2578;51.622;7.046;2022-07-06T13:21:21;25.20;;;23.40;;
5117;SDS011;2578;51.622;7.046;2022-07-06T13:23:47;26.17;;;24.27;;
5117;SDS011;2578;51.622;7.046;2022-07-06T13:26:13;25.10;;;23.30;;
5117;SDS011;2578;51.622;7.046;2022-07-06T13:28:38;24.00;;;22.20;;
5117;SDS011;2578;51.622;7.046;2022-07-06T13:31:04;24.60;;;22.80;;
5117;SDS011;2578;51.622;7.046;2022-07-06T13:33:30;25.20;;;23.40;;
5117;SDS011;2578;51.622;7.046;2022-07-06T13:35:55;24.50;;;22.70;;
5117;SDS011;2578;51.622;7.046;2022-07-06T13:38:21;25.70;;;23.80;;
5117;SDS011;2578;51.622;7.046;2022-07-06T13:40:46;25.03;;;23.23;;
5117;SDS011;2578;51.622;7.046;2022-07-06T13:43:12;25.73;;;23.83;;
5117;SDS011;2578;51.622;7.046;2022-07-06T13:45:38;26.10;;;24.20;;
5117;SDS011;2578;51.622;7.046;2022-07-06T13:48:03;25.57;;;23.77;;
5117;SDS011;2578;51.622;7.046;2022-07-06T13:50:29;25.07;;;23.17;;
5117;SDS011;2578;51.622;7.046;2022-07-06T13:52:57;25.13;;;23.23;;
5117;SDS011;2578;51.622;7.046;2022-07-06T13:55:23;25.27;;;23.37;;
5117;SDS011;2578;51.622;7.046;2022-07-06T13:57:49;24.00;;;22.10;;
5117;SDS011;2578;51.622;7.046;2022-07-06T14:00:14;23.30;;;21.50;;
5117;SDS011;2578;51.622;7.046;2022-07-06T14:02:43;24.97;;;23.07;;
5117;SDS011;2578;51.622;7.046;2022-07-06T14:05:09;25.37;;;23.47;;
5117;SDS011;2578;51.622;7.046;2022-07-06T14:07:35;24.50;;;22.60;;
5117;SDS011;2578;51.622;7.046;2022-07-06T14:10:00;26.00;;;24.10;;
5117;SDS011;2578;51.622;7.046;2022-07-06T14:12:26;26.60;;;24.60;;
5117;SDS011;2578;51.622;7.046;2022-07-06T14:14:52;25.10;;;23.20;;
5117;SDS011;2578;51.622;7.046;2022-07-06T14:17:18;24.10;;;22.30;;
5117;SDS011;2578;51.622;7.046;2022-07-06T14:19:44;22.90;;;21.10;;
5117;SDS011;2578;51.622;7.046;2022-07-06T14:22:09;24.27;;;22.37;;
5117;SDS011;2578;51.622;7.046;2022-07-06T14:24:35;23.83;;;22.03;;
5117;SDS011;2578;51.622;7.046;2022-07-06T14:27:01;22.80;;;21.00;;
5117;SDS011;2578;51.622;7.046;2022-07-06T14:29:26;22.20;;;20.50;;
5117;SDS011;2578;51.622;7.046;2022-07-06T14:31:52;22.63;;;20.93;;
5117;SDS011;2578;51.622;7.046;2022-07-06T14:34:18;22.70;;;20.90;;
5117;SDS011;2578;51.622;7.046;2022-07-06T14:36:43;22.30;;;20.60;;
5117;SDS011;2578;51.622;7.046;2022-07-06T14:39:09;22.27;;;20.57;;
5117;SDS011;2578;51.622;7.046;2022-07-06T14:41:37;23.40;;;21.60;;
5117;SDS011;2578;51.622;7.046;2022-07-06T14:44:03;23.87;;;22.07;;
5117;SDS011;2578;51.622;7.046;2022-07-06T14:46:29;23.50;;;21.70;;
5117;SDS011;2578;51.622;7.046;2022-07-06T14:48:56;23.70;;;21.90;;
5117;SDS011;2578;51.622;7.046;2022-07-06T14:51:21;22.83;;;21.10;;
5117;SDS011;2578;51.622;7.046;2022-07-06T14:53:47;24.97;;;22.97;;
5117;SDS011;2578;51.622;7.046;2022-07-06T14:56:13;22.83;;;21.13;;
5117;SDS011;2578;51.622;7.046;2022-07-06T14:58:39;23.87;;;22.07;;
5117;SDS011;2578;51.622;7.046;2022-07-06T15:01:05;23.50;;;21.70;;
5117;SDS011;2578;51.622;7.046;2022-07-06T15:03:30;24.63;;;22.83;;
5117;SDS011;2578;51.622;7.046;2022-07-06T15:05:56;22.60;;;20.80;;
5117;SDS011;2578;51.622;7.046;2022-07-06T15:08:22;23.33;;;21.53;;
5117;SDS011;2578;51.622;7.046;2022-07-06T15:10:48;23.13;;;21.33;;
5117;SDS011;2578;51.622;7.046;2022-07-06T15:13:13;23.20;;;21.40;;
5117;SDS011;2578;51.622;7.046;2022-07-06T15:15:39;23.40;;;21.50;;
5117;SDS011;2578;51.622;7.046;2022-07-06T15:18:06;24.70;;;22.80;;
5117;SDS011;2578;51.622;7.046;2022-07-06T15:20:31;24.90;;;23.00;;
5117;SDS011;2578;51.622;7.046;2022-07-06T15:22:58;23.73;;;21.90;;
5117;SDS011;2578;51.622;7.046;2022-07-06T15:25:24;23.40;;;21.60;;
5117;SDS011;2578;51.622;7.046;2022-07-06T15:27:50;24.00;;;22.20;;
5117;SDS011;2578;51.622;7.046;2022-07-06T15:30:16;24.10;;;22.30;;
5117;SDS011;2578;51.622;7.046;2022-07-06T15:32:42;24.37;;;22.53;;
5117;SDS011;2578;51.622;7.046;2022-07-06T15:35:08;24.80;;;23.00;;
5117;SDS011;2578;51.622;7.046;2022-07-06T15:37:33;24.47;;;22.67;;
5117;SDS011;2578;51.622;7.046;2022-07-06T15:40:00;24.40;;;22.50;;
5117;SDS011;2578;51.622;7.046;2022-07-06T15:42:27;23.50;;;21.70;;